Time;durP1;ratioP1;P1;durP2;ratioP2;P2;SDS_P1;SDS_P2;PMS_P1;PMS_P2;Temp;Humidity;BMP_temperature;BMP_pressure;BME280_temperature;BME280_humidity;BME280_pressure;Samples;Min_cycle;Max_cycle;Signal;HPM_P1;HPM_P2
2022/06/14 00:00:56;;;;;;;1.00;1.00;;;;;;;16.42;71.59;94376.55;1803874;78;20965;-54
2022/06/14 00:03:28;;;;;;;1.77;1.10;;;;;;;16.39;71.39;94376.77;1805601;78;21040;-55
2022/06/14 00:05:58;;;;;;;1.90;1.02;;;;;;;16.35;71.07;94373.47;1782038;79;20989;-55
2022/06/14 00:08:25;;;;;;;1.20;1.20;;;;;;;16.30;70.80;94372.75;1781821;79;21401;-55
2022/06/14 00:10:56;;;;;;;1.10;1.07;;;;;;;16.27;70.91;94382.06;1803865;78;21450;-55
2022/06/14 00:13:23;;;;;;;1.00;1.00;;;;;;;16.25;70.32;94380.41;1803851;78;20957;-54
2022/06/14 00:15:50;;;;;;;7.17;1.10;;;;;;;16.26;69.75;94375.63;1803917;79;21473;-55
2022/06/14 00:18:24;;;;;;;1.00;1.00;;;;;;;16.23;69.18;94381.53;1808226;78;21469;-55
2022/06/14 00:20:52;;;;;;;1.00;1.00;;;;;;;16.20;69.55;94388.07;1804136;79;21469;-54
2022/06/14 00:23:19;;;;;;;1.30;1.17;;;;;;;16.16;69.08;94388.92;1804183;78;21094;-54
2022/06/14 00:25:49;;;;;;;1.07;1.00;;;;;;;16.12;69.44;94394.55;1803821;78;20978;-54
2022/06/14 00:28:16;;;;;;;1.40;1.30;;;;;;;16.06;69.07;94402.82;1803837;79;20939;-55
2022/06/14 00:30:48;;;;;;;1.12;1.12;;;;;;;16.04;68.75;94410.88;1803818;78;20978;-54
2022/06/14 00:33:15;;;;;;;1.40;1.30;;;;;;;15.99;68.66;94406.66;1804066;79;21094;-55
2022/06/14 00:35:42;;;;;;;2.80;1.40;;;;;;;15.93;68.52;94403.08;1803970;79;21800;-54
2022/06/14 00:38:13;;;;;;;1.07;1.07;;;;;;;15.85;68.91;94404.74;1803813;78;20925;-53
2022/06/14 00:40:41;;;;;;;2.25;1.98;;;;;;;15.78;68.69;94405.19;1803792;78;21048;-54
2022/06/14 00:43:15;;;;;;;2.37;1.60;;;;;;;15.69;69.10;94424.77;1803781;78;20985;-54
2022/06/14 00:45:48;;;;;;;1.65;1.20;;;;;;;15.62;69.00;94427.34;1803923;79;20989;-54
2022/06/14 00:48:26;;;;;;;1.50;1.37;;;;;;;15.57;69.40;94437.72;1804301;78;21203;-55
2022/06/14 00:51:07;;;;;;;1.42;1.32;;;;;;;15.52;69.24;94445.35;1803792;78;21002;-54
2022/06/14 00:54:02;;;;;;;1.37;1.27;;;;;;;15.52;69.29;94449.52;1803798;79;20993;-54
2022/06/14 00:56:49;;;;;;;1.30;1.30;;;;;;;15.48;69.10;94448.97;1802287;79;20946;-55
2022/06/14 00:59:42;;;;;;;1.45;1.35;;;;;;;15.44;69.00;94453.97;1789172;79;21476;-54
2022/06/14 01:02:14;;;;;;;1.47;1.27;;;;;;;15.41;69.14;94462.48;1803945;78;21125;-55
2022/06/14 01:04:42;;;;;;;1.47;1.37;;;;;;;15.43;69.22;94472.45;1803766;79;20969;-54
2022/06/14 01:07:30;;;;;;;1.70;1.22;;;;;;;15.44;69.13;94471.20;1803849;78;21547;-55
2022/06/14 01:10:27;;;;;;;1.10;1.10;;;;;;;15.45;69.07;94453.33;1804002;79;20954;-55
2022/06/14 01:13:02;;;;;;;1.50;1.40;;;;;;;15.44;68.71;94473.98;1805527;77;20977;-54
2022/06/14 01:15:32;;;;;;;1.10;1.10;;;;;;;15.42;68.65;94466.16;1781928;79;21155;-54
2022/06/14 01:18:08;;;;;;;1.20;1.20;;;;;;;15.40;68.48;94470.02;1803781;79;21516;-54
2022/06/14 01:20:36;;;;;;;1.45;1.35;;;;;;;15.36;68.47;94464.56;1804174;79;20942;-54
2022/06/14 01:23:08;;;;;;;1.40;1.30;;;;;;;15.32;68.47;94462.63;1804172;78;20957;-54
2022/06/14 01:25:51;;;;;;;3.25;1.52;;;;;;;15.29;68.70;94453.87;1814112;78;21349;-54
2022/06/14 01:28:22;;;;;;;1.45;1.35;;;;;;;15.27;68.62;94464.65;1813502;78;21014;-55
2022/06/14 01:30:51;;;;;;;1.10;1.10;;;;;;;15.24;68.51;94476.70;1814063;78;21404;-54
2022/06/14 01:33:34;;;;;;;1.35;1.30;;;;;;;15.24;68.71;94476.09;1802809;79;21030;-55
2022/06/14 01:36:09;;;;;;;3.58;1.50;;;;;;;15.25;68.32;94469.92;1813749;79;21485;-55
2022/06/14 01:38:36;;;;;;;1.60;1.50;;;;;;;15.24;68.37;94471.94;1801937;79;20938;-55
2022/06/14 01:41:30;;;;;;;1.50;1.40;;;;;;;15.24;68.51;94471.16;1813822;79;21254;-54
2022/06/14 01:44:25;;;;;;;1.45;1.35;;;;;;;15.19;68.55;94471.22;1813900;79;20923;-54
2022/06/14 01:47:11;;;;;;;1.50;1.40;;;;;;;15.20;68.43;94474.13;1814071;79;21454;-54
2022/06/14 01:53:19;;;;;;;;;;;;;;;15.24;68.65;94476.70;1816807;77;20999;-54
2022/06/14 01:56:25;;;;;;;1.20;1.20;;;;;;;15.26;67.66;94473.60;1814388;79;21553;-54
2022/06/14 01:59:04;;;;;;;1.40;1.30;;;;;;;15.22;67.85;94488.27;1814329;79;20982;-53
2022/06/14 02:02:03;;;;;;;1.72;1.47;;;;;;;15.15;67.04;94490.70;1810726;79;21018;-54
2022/06/14 02:05:11;;;;;;;1.50;1.40;;;;;;;15.08;67.54;94494.64;1810838;78;20987;-55
2022/06/14 02:07:47;;;;;;;2.65;1.27;;;;;;;15.04;67.68;94502.36;1808600;78;20940;-54
2022/06/14 02:10:42;;;;;;;1.70;1.60;;;;;;;15.04;68.11;94488.51;1808995;78;21173;-54
2022/06/14 02:13:34;;;;;;;1.50;1.40;;;;;;;15.08;68.15;94491.86;1808552;79;20911;-54
2022/06/14 02:16:29;;;;;;;1.50;1.40;;;;;;;15.12;68.42;94486.88;1809300;78;21471;-54
2022/06/14 02:19:16;;;;;;;1.60;1.50;;;;;;;15.10;67.79;94493.53;1808705;79;20943;-54
2022/06/14 02:21:55;;;;;;;1.62;1.52;;;;;;;15.07;67.52;94502.81;1808910;78;20959;-55
2022/06/14 02:24:30;;;;;;;1.40;1.30;;;;;;;15.05;67.74;94503.91;1808672;78;21197;-55
2022/06/14 02:27:12;;;;;;;1.60;1.50;;;;;;;15.06;67.54;94513.75;1808563;79;20924;-54
2022/06/14 02:29:52;;;;;;;1.70;1.60;;;;;;;15.06;67.27;94516.52;1808693;79;21100;-55
2022/06/14 02:32:31;;;;;;;3.45;1.60;;;;;;;15.03;67.47;94527.16;1806771;78;21034;-54
2022/06/14 02:35:09;;;;;;;1.52;1.42;;;;;;;14.99;67.62;94539.06;1807754;78;21160;-55
2022/06/14 02:37:57;;;;;;;1.57;1.47;;;;;;;14.97;67.54;94548.48;1808363;78;21153;-54
2022/06/14 02:40:31;;;;;;;1.82;1.72;;;;;;;14.95;67.28;94541.88;1808509;78;21427;-55
2022/06/14 02:43:13;;;;;;;1.57;1.45;;;;;;;14.94;67.66;94538.36;1808735;78;20948;-55
2022/06/14 02:45:45;;;;;;;1.45;1.35;;;;;;;14.95;67.84;94541.88;1809040;78;21018;-55
2022/06/14 02:48:18;;;;;;;1.80;1.70;;;;;;;14.94;68.11;94545.89;1808294;78;21480;-55
2022/06/14 02:50:53;;;;;;;1.60;1.50;;;;;;;14.90;68.37;94537.80;1809135;78;21063;-54
2022/06/14 02:53:29;;;;;;;3.75;1.77;;;;;;;14.87;68.52;94537.98;1808568;78;21007;-55
2022/06/14 02:56:21;;;;;;;2.58;1.75;;;;;;;14.84;68.39;94543.86;1808686;78;20935;-55
2022/06/14 02:59:00;;;;;;;1.90;1.70;;;;;;;14.80;67.90;94550.22;1808859;78;20990;-55
2022/06/14 03:01:42;;;;;;;2.12;1.92;;;;;;;14.80;67.85;94551.59;1808705;79;20987;-54
2022/06/14 03:04:30;;;;;;;1.70;1.60;;;;;;;14.81;67.81;94543.43;1808394;79;21259;-55
2022/06/14 03:07:06;;;;;;;1.85;1.75;;;;;;;14.82;68.08;94565.73;1808174;78;21046;-54
2022/06/14 03:09:36;;;;;;;4.25;2.10;;;;;;;14.82;67.76;94576.81;1808632;78;21026;-54
2022/06/14 03:12:21;;;;;;;2.15;1.90;;;;;;;14.84;67.98;94580.50;1808654;78;21483;-55
2022/06/14 03:15:16;;;;;;;3.87;1.80;;;;;;;14.86;68.53;94582.95;1808562;78;21010;-54
2022/06/14 03:18:08;;;;;;;4.40;1.70;;;;;;;14.88;69.25;94586.00;1808624;78;21132;-55
2022/06/14 03:21:00;;;;;;;1.70;1.60;;;;;;;14.92;69.71;94600.41;1808553;78;20932;-55
2022/06/14 03:23:39;;;;;;;1.85;1.75;;;;;;;14.96;70.39;94603.74;1804939;78;20955;-54
2022/06/14 03:26:44;;;;;;;2.00;1.90;;;;;;;14.89;71.27;94597.22;1808542;79;20935;-54
2022/06/14 03:29:25;;;;;;;2.87;1.42;;;;;;;14.78;72.70;94601.80;1808458;78;20971;-55
2022/06/14 03:31:58;;;;;;;1.90;1.80;;;;;;;14.69;74.20;94612.35;1809099;79;21443;-55
2022/06/14 03:34:38;;;;;;;1.82;1.57;;;;;;;14.59;75.03;94615.69;1808388;78;21387;-54
2022/06/14 03:37:07;;;;;;;2.15;1.77;;;;;;;14.51;75.77;94622.21;1808793;79;20975;-53
2022/06/14 03:39:45;;;;;;;1.90;1.70;;;;;;;14.49;77.02;94620.52;1808402;79;21066;-54
2022/06/14 03:42:14;;;;;;;2.02;1.80;;;;;;;14.51;77.60;94623.59;1808554;78;20979;-55
2022/06/14 03:44:43;;;;;;;1.90;1.80;;;;;;;14.48;78.20;94620.37;1808396;78;21075;-54
2022/06/14 03:47:22;;;;;;;1.80;1.70;;;;;;;14.45;78.57;94617.17;1808594;79;20995;-54
2022/06/14 03:49:58;;;;;;;2.20;2.00;;;;;;;14.46;78.59;94612.41;1808329;79;21061;-54
2022/06/14 03:52:54;;;;;;;4.78;1.77;;;;;;;14.48;79.21;94617.60;1808931;78;20923;-55
2022/06/14 03:55:39;;;;;;;2.70;1.92;;;;;;;14.52;79.54;94618.20;1808416;78;20983;-54
2022/06/14 03:58:51;;;;;;;4.22;1.80;;;;;;;14.52;79.72;94615.44;1808794;78;21209;-54
2022/06/14 04:01:29;;;;;;;1.82;1.72;;;;;;;14.47;79.68;94609.16;1808479;79;20923;-54
2022/06/14 04:04:19;;;;;;;1.62;1.52;;;;;;;14.42;80.03;94613.83;1808440;78;21410;-54
2022/06/14 04:07:23;;;;;;;3.60;2.27;;;;;;;14.42;80.69;94612.45;1808408;79;20931;-54
2022/06/14 04:10:18;;;;;;;2.10;2.00;;;;;;;14.43;81.18;94618.13;1808714;78;20991;-55
2022/06/14 04:13:11;;;;;;;2.75;2.12;;;;;;;14.47;81.22;94624.38;1808479;78;21308;-54
2022/06/14 04:16:05;;;;;;;3.65;1.95;;;;;;;14.46;81.46;94627.00;1808532;79;28672;-56
2022/06/14 04:18:47;;;;;;;3.92;1.80;;;;;;;14.45;81.74;94628.88;1808498;79;21492;-55
2022/06/14 04:21:52;;;;;;;6.30;1.70;;;;;;;14.46;81.68;94633.17;1793143;78;20974;-54
2022/06/14 04:24:33;;;;;;;4.25;2.10;;;;;;;14.45;81.60;94631.02;1808722;79;21396;-54
2022/06/14 04:27:12;;;;;;;1.80;1.70;;;;;;;14.48;81.57;94635.59;1808680;79;21084;-55
2022/06/14 04:30:08;;;;;;;2.27;2.08;;;;;;;14.53;81.14;94636.95;1807231;77;21019;-54
2022/06/14 04:32:57;;;;;;;2.30;2.00;;;;;;;14.55;81.33;94643.55;1785398;78;21032;-54
2022/06/14 04:35:30;;;;;;;3.27;1.80;;;;;;;14.59;81.43;94637.20;1785504;78;21022;-56
2022/06/14 04:38:06;;;;;;;2.27;1.87;;;;;;;14.65;80.75;94633.91;1790440;79;21065;-53
2022/06/14 04:40:40;;;;;;;7.47;2.55;;;;;;;14.68;80.19;94632.20;1808270;78;21050;-54
2022/06/14 04:43:18;;;;;;;2.35;2.15;;;;;;;14.70;79.34;94641.58;1808698;78;20978;-54
2022/06/14 06:20:15;;;;;;;6.55;4.67;;;;;;;16.34;55.08;94703.70;1778198;78;21096;-62
2022/06/14 06:23:10;;;;;;;6.70;3.75;;;;;;;16.29;54.52;94709.31;1785412;78;21066;-63
2022/06/14 06:25:47;;;;;;;12.88;6.20;;;;;;;16.28;54.81;94702.84;1776495;78;21087;-65
2022/06/14 06:28:23;;;;;;;6.65;3.42;;;;;;;16.36;54.24;94697.81;1771479;78;20977;-67
2022/06/14 06:31:05;;;;;;;2.95;2.45;;;;;;;16.53;54.18;94702.95;1778688;78;21369;-63
2022/06/14 06:33:37;;;;;;;11.38;2.67;;;;;;;16.72;53.19;94700.67;1790322;78;21033;-57
2022/06/14 06:36:22;;;;;;;7.97;2.77;;;;;;;16.75;52.76;94703.22;1784327;80;21029;-56
2022/06/14 06:39:01;;;;;;;6.25;2.50;;;;;;;16.72;52.98;94711.78;1774246;78;21064;-58
2022/06/14 06:41:51;;;;;;;12.00;2.90;;;;;;;16.67;53.72;94716.63;1779933;78;21229;-59
2022/06/14 06:44:43;;;;;;;7.15;3.65;;;;;;;16.64;54.04;94714.83;1780901;78;20974;-57
2022/06/14 06:47:36;;;;;;;7.80;3.22;;;;;;;16.71;53.74;94713.04;1719449;81;21099;-56
2022/06/14 06:50:31;;;;;;;5.00;3.12;;;;;;;16.74;53.05;94723.92;1793870;77;21001;-58
2022/06/14 06:53:16;;;;;;;26.55;3.95;;;;;;;16.76;51.26;94714.47;1792254;78;21100;-60
2022/06/14 06:56:16;;;;;;;7.60;2.62;;;;;;;16.77;51.59;94709.69;1779465;78;21925;-56
2022/06/14 06:59:07;;;;;;;8.48;4.95;;;;;;;16.79;51.17;94716.91;1746256;80;21578;-57
2022/06/14 07:01:40;;;;;;;3.05;2.45;;;;;;;16.83;51.41;94716.06;1667136;84;21100;-58
2022/06/14 07:07:24;;;;;;;4.62;2.30;;;;;;;17.14;49.39;94709.98;1782182;78;21046;-60
2022/06/14 07:10:25;;;;;;;3.98;2.10;;;;;;;17.24;48.32;94703.00;1759696;78;21171;-57
2022/06/14 07:13:10;;;;;;;10.82;3.55;;;;;;;17.21;47.65;94703.20;1777168;78;20957;-59
2022/06/14 07:16:09;;;;;;;10.25;3.10;;;;;;;17.15;48.62;94702.40;1791075;78;21017;-63
2022/06/14 07:18:50;;;;;;;3.25;2.42;;;;;;;17.23;47.77;94704.87;1790204;78;20978;-58
2022/06/14 07:21:28;;;;;;;4.50;2.30;;;;;;;17.44;48.52;94705.00;1765195;78;21024;-57
2022/06/14 07:24:13;;;;;;;4.00;1.80;;;;;;;17.70;49.54;94705.72;1779123;78;21157;-56
2022/06/14 09:41:38;;;;;;;4.22;1.80;;;;;;;20.71;39.72;94758.26;1663010;85;21387;-60
2022/06/14 09:44:23;;;;;;;2.75;1.72;;;;;;;20.75;38.41;94746.82;1649669;84;21238;-60
2022/06/14 09:47:32;;;;;;;4.62;2.00;;;;;;;20.90;38.96;94750.11;1648855;84;21057;-64
2022/06/14 09:50:36;;;;;;;3.55;1.82;;;;;;;21.06;39.13;94771.64;1578001;89;21102;-65
2022/06/14 09:53:34;;;;;;;6.15;2.05;;;;;;;21.07;41.76;94759.20;1605786;86;21093;-60
2022/06/14 09:56:19;;;;;;;9.80;1.95;;;;;;;21.03;42.21;94769.25;1597212;87;21014;-63
2022/06/14 09:59:07;;;;;;;8.03;2.65;;;;;;;20.86;42.58;94759.38;1587981;86;21482;-65
2022/06/14 10:01:54;;;;;;;3.00;1.72;;;;;;;20.68;42.93;94754.31;1627767;88;20992;-62
2022/06/14 10:04:40;;;;;;;6.12;2.20;;;;;;;20.67;45.13;94754.19;1625530;86;21067;-61
2022/06/14 10:07:36;;;;;;;4.78;2.10;;;;;;;20.85;43.53;94752.27;1609119;88;21056;-61
2022/06/14 10:10:20;;;;;;;2.25;1.40;;;;;;;21.14;42.52;94755.20;1649747;84;21121;-61
2022/06/14 10:13:09;;;;;;;6.12;1.77;;;;;;;21.45;43.61;94750.61;1637826;84;21181;-62
2022/06/14 10:15:58;;;;;;;3.58;1.70;;;;;;;21.73;42.61;94749.84;1642811;86;21147;-57
2022/06/14 10:18:54;;;;;;;1.98;1.40;;;;;;;22.03;41.13;94763.89;1667325;84;21510;-57
2022/06/14 10:21:39;;;;;;;3.52;1.87;;;;;;;22.12;40.65;94753.86;1678304;85;21019;-58
2022/06/14 10:24:32;;;;;;;9.65;2.50;;;;;;;22.20;39.96;94751.26;1637794;85;21083;-56
2022/06/14 10:30:36;;;;;;;3.40;2.02;;;;;;;22.16;38.38;94748.76;1651620;84;21027;-56
2022/06/14 10:33:18;;;;;;;2.80;1.52;;;;;;;21.94;39.06;94741.79;1658392;84;21722;-58
2022/06/14 10:36:30;;;;;;;2.12;1.62;;;;;;;21.70;40.15;94741.71;1659739;84;22486;-55
2022/06/14 10:43:08;;;;;;;4.67;2.55;;;;;;;21.04;41.37;94751.81;1611266;87;22054;-57
2022/06/14 11:48:46;;;;;;;;;;;;;;;;;;;;;
2022/06/14 11:51:29;;;;;;;3.62;1.40;;;;;;;25.85;35.11;94709.47;1738696;80;21093;-52
2022/06/14 11:54:04;;;;;;;5.05;1.40;;;;;;;26.49;34.88;94721.12;1711149;80;21030;-52
2022/06/14 11:57:12;;;;;;;3.50;1.47;;;;;;;27.02;34.21;94715.21;1745678;81;21073;-58
2022/06/14 12:00:22;;;;;;;3.35;1.37;;;;;;;27.18;31.61;94718.27;1735894;81;21066;-54
2022/06/14 12:03:14;;;;;;;3.20;1.70;;;;;;;26.96;32.33;94713.20;1748810;80;21026;-54
2022/06/14 12:06:12;;;;;;;6.45;4.40;;;;;;;27.33;34.33;94711.28;1738700;80;21085;-55
2022/06/14 12:08:55;;;;;;;3.92;1.50;;;;;;;27.45;32.04;94704.00;1705061;83;20928;-51
2022/06/14 12:11:26;;;;;;;4.37;1.40;;;;;;;26.93;31.11;94710.08;1743971;80;21057;-54
2022/06/14 12:14:44;;;;;;;4.03;1.72;;;;;;;26.58;31.45;94710.77;1719575;81;21188;-55
2022/06/14 12:17:51;;;;;;;5.53;2.08;;;;;;;26.31;32.22;94703.72;1761626;80;20999;-56
2022/06/14 12:20:20;;;;;;;2.95;1.40;;;;;;;26.05;33.09;94690.40;1742027;80;21053;-54
2022/06/14 12:23:10;;;;;;;2.08;1.40;;;;;;;25.78;32.41;94691.80;1720822;81;21070;-54
2022/06/14 12:26:37;;;;;;;4.85;1.52;;;;;;;25.33;32.89;94693.33;1740594;81;21340;-55
2022/06/14 12:29:33;;;;;;;2.85;1.60;;;;;;;25.27;34.43;94693.45;1752398;80;21267;-56
2022/06/14 12:32:18;;;;;;;5.20;1.67;;;;;;;25.44;34.17;94686.03;1756286;80;21060;-56
2022/06/14 12:34:52;;;;;;;4.05;1.95;;;;;;;25.63;33.29;94685.25;1722219;81;21062;-53
2022/06/14 12:38:02;;;;;;;3.25;2.58;;;;;;;25.62;34.51;94674.61;1729711;81;21033;-53
2022/06/14 12:40:53;;;;;;;3.92;1.57;;;;;;;25.43;35.36;94676.06;1736126;82;21043;-55
2022/06/14 12:43:30;;;;;;;3.98;1.32;;;;;;;25.81;33.99;94669.55;1741577;80;21569;-51
2022/06/14 12:46:10;;;;;;;4.20;1.75;;;;;;;26.12;33.26;94670.73;1752024;80;21054;-54
2022/06/14 12:48:45;;;;;;;7.58;2.45;;;;;;;26.31;32.93;94669.86;1738319;81;20966;-56
2022/06/14 12:51:25;;;;;;;4.55;2.12;;;;;;;26.90;33.01;94666.02;1743695;81;21094;-51
2022/06/14 12:54:13;;;;;;;3.10;1.80;;;;;;;27.66;32.70;94669.31;1713690;82;21082;-52
2022/06/14 12:56:55;;;;;;;3.50;1.70;;;;;;;28.47;31.65;94662.97;1729285;81;21175;-52
2022/06/14 12:59:45;;;;;;;4.15;2.27;;;;;;;28.80;31.76;94671.73;1721022;82;21007;-51
2022/06/14 13:02:25;;;;;;;2.70;2.00;;;;;;;29.03;30.70;94669.64;1742069;81;21452;-53
2022/06/14 13:05:12;;;;;;;2.90;1.80;;;;;;;29.38;30.41;94672.20;1741097;81;21078;-54
2022/06/14 13:08:17;;;;;;;3.83;1.42;;;;;;;29.06;29.31;94662.83;1716188;82;21421;-52
2022/06/14 13:10:57;;;;;;;2.35;1.30;;;;;;;28.89;30.48;94669.11;1702689;82;21336;-59
2022/06/14 13:13:36;;;;;;;3.98;1.55;;;;;;;28.45;29.50;94667.03;1718215;83;21065;-57
2022/06/14 13:16:36;;;;;;;3.30;1.35;;;;;;;28.11;29.61;94663.13;1719874;81;22205;-55
2022/06/14 13:19:27;;;;;;;4.83;1.50;;;;;;;28.23;30.14;94654.34;1739902;81;21478;-60
2022/06/14 13:22:21;;;;;;;2.60;1.20;;;;;;;28.29;29.91;94652.11;1742465;80;21297;-53
2022/06/14 13:25:27;;;;;;;5.40;1.57;;;;;;;28.30;31.05;94657.89;1713812;81;21232;-53
2022/06/14 13:28:09;;;;;;;3.05;1.20;;;;;;;28.76;29.66;94661.45;1750100;81;21048;-57
2022/06/14 13:31:16;;;;;;;5.10;1.15;;;;;;;29.35;30.01;94659.83;1743429;80;21495;-59
2022/06/14 13:34:16;;;;;;;5.78;1.40;;;;;;;29.67;29.91;94659.23;1756081;81;21623;-53
2022/06/14 13:37:10;;;;;;;6.65;1.60;;;;;;;30.01;29.06;94656.59;1705264;83;21097;-54
2022/06/14 13:40:08;;;;;;;2.92;1.17;;;;;;;30.36;28.00;94656.18;1749652;81;21217;-55
2022/06/14 13:43:11;;;;;;;2.65;1.22;;;;;;;30.60;27.35;94656.12;1715379;82;21097;-57
2022/06/14 13:46:01;;;;;;;2.30;1.10;;;;;;;30.23;27.62;94670.68;1733405;81;21115;-52
2022/06/14 13:48:53;;;;;;;6.15;1.67;;;;;;;29.58;27.46;94664.77;1708315;82;21576;-53
2022/06/14 13:51:51;;;;;;;;;;;;;;;28.59;27.93;94669.10;1697635;83;21543;-51
2022/06/14 13:54:58;;;;;;;2.50;1.50;;;;;;;27.60;30.03;94674.36;1601536;87;21331;-52
2022/06/14 13:57:50;;;;;;;5.17;1.57;;;;;;;27.23;30.34;94671.39;1707354;81;21124;-52
2022/06/14 14:00:26;;;;;;;2.05;1.57;;;;;;;27.78;29.81;94667.66;1679387;83;21058;-51
2022/06/14 14:03:30;;;;;;;7.50;1.32;;;;;;;28.53;30.27;94666.36;1707911;82;21074;-50
2022/06/14 14:06:06;;;;;;;4.42;1.10;;;;;;;28.92;28.39;94662.30;1716853;82;21057;-51
2022/06/14 14:09:06;;;;;;;3.30;1.35;;;;;;;29.50;27.50;94661.22;1713930;82;21245;-50
2022/06/14 14:12:03;;;;;;;4.40;1.32;;;;;;;29.97;27.57;94668.34;1713856;83;21015;-52
2022/06/14 14:15:00;;;;;;;4.25;1.47;;;;;;;30.46;26.09;94669.11;1665337;84;21888;-56
2022/06/14 14:17:40;;;;;;;2.77;1.40;;;;;;;30.91;25.97;94670.92;1687113;84;21058;-50
2022/06/14 14:20:43;;;;;;;3.77;1.20;;;;;;;31.28;25.22;94669.81;1681327;84;21056;-54
2022/06/14 14:23:33;;;;;;;5.08;1.02;;;;;;;31.24;25.35;94667.29;1692802;81;21872;-53
2022/06/14 14:26:24;;;;;;;5.55;1.15;;;;;;;31.46;24.98;94669.89;1738405;81;21057;-58
2022/06/14 14:29:04;;;;;;;4.25;1.12;;;;;;;31.95;23.84;94666.16;1656533;83;21059;-58
2022/06/14 14:31:41;;;;;;;4.92;1.30;;;;;;;31.79;23.89;94671.20;1712529;81;21056;-56
2022/06/14 14:34:22;;;;;;;5.70;1.17;;;;;;;31.20;24.16;94679.76;1684953;83;20987;-59
2022/06/14 14:36:59;;;;;;;2.70;1.07;;;;;;;31.18;24.44;94674.64;1694843;83;21095;-59
2022/06/14 14:39:38;;;;;;;5.65;1.20;;;;;;;31.45;24.65;94674.05;1714236;83;21034;-60
2022/06/14 14:42:21;;;;;;;3.75;1.32;;;;;;;31.37;24.60;94680.50;1698455;83;21010;-57
2022/06/14 14:45:03;;;;;;;2.25;0.98;;;;;;;30.94;24.83;94679.70;1658948;84;21140;-56
2022/06/14 14:47:38;;;;;;;2.25;1.20;;;;;;;29.83;25.00;94671.28;1696769;83;21099;-57
2022/06/14 14:50:17;;;;;;;2.35;1.12;;;;;;;28.62;26.36;94664.39;1712684;81;21156;-54
2022/06/14 14:53:18;;;;;;;4.00;1.27;;;;;;;27.51;27.92;94677.73;1685001;85;20974;-52
2022/06/14 14:56:04;;;;;;;2.00;0.90;;;;;;;26.73;28.94;94677.01;1666850;83;21030;-54
2022/06/14 14:58:52;;;;;;;1.62;1.07;;;;;;;26.00;30.57;94670.92;1710695;83;21038;-52
2022/06/14 15:07:52;;;;;;;3.80;1.20;;;;;;;23.89;32.92;94673.98;1729723;81;21744;-52
2022/06/14 15:10:22;;;;;;;2.75;1.40;;;;;;;23.35;34.07;94673.53;1743804;81;21475;-53
2022/06/14 15:12:56;;;;;;;3.22;1.35;;;;;;;22.89;35.56;94674.61;1720020;81;21459;-55
2022/06/14 15:15:35;;;;;;;2.60;1.50;;;;;;;22.41;36.26;94672.47;1720418;82;21106;-54
2022/06/14 15:21:03;;;;;;;2.12;1.50;;;;;;;21.73;37.35;94680.45;1747731;81;21423;-52
2022/06/14 15:23:38;;;;;;;1.82;1.50;;;;;;;21.42;38.23;94682.29;1752321;81;21041;-51
2022/06/14 15:26:21;;;;;;;3.50;1.70;;;;;;;21.21;39.54;94673.53;1720701;81;21029;-51
2022/06/14 15:28:56;;;;;;;6.42;1.90;;;;;;;20.93;38.85;94680.55;1749021;81;21513;-52
2022/06/14 15:31:50;;;;;;;2.87;1.55;;;;;;;20.74;39.58;94682.38;1744251;82;21237;-52
2022/06/14 15:34:24;;;;;;;4.30;1.82;;;;;;;20.60;39.52;94684.19;1728797;82;20995;-53
2022/06/14 15:36:54;;;;;;;4.05;1.70;;;;;;;20.45;40.12;94680.17;1679073;81;20994;-53
2022/06/14 15:39:31;;;;;;;2.10;1.67;;;;;;;20.36;40.49;94691.00;1705724;82;21502;-54
2022/06/14 15:42:07;;;;;;;5.05;1.92;;;;;;;20.29;40.32;94693.55;1721687;82;20972;-51
2022/06/14 15:44:36;;;;;;;4.00;1.92;;;;;;;20.24;40.63;94694.33;1735736;81;21164;-52
2022/06/14 15:47:08;;;;;;;3.55;1.80;;;;;;;20.22;40.85;94695.48;1669903;83;21101;-51
2022/06/14 15:49:45;;;;;;;5.05;1.87;;;;;;;20.15;41.15;94689.77;1715769;83;21493;-51
2022/06/14 15:52:32;;;;;;;3.20;1.87;;;;;;;20.07;41.24;94697.03;1745003;81;21026;-51
2022/06/14 15:55:18;;;;;;;3.70;1.72;;;;;;;19.98;42.07;94696.63;1743373;82;21016;-51
2022/06/14 15:57:54;;;;;;;4.25;2.12;;;;;;;19.98;42.20;94695.86;1723322;83;21189;-52
2022/06/14 16:00:29;;;;;;;4.28;2.45;;;;;;;19.91;42.34;94696.37;1753212;81;20978;-52
2022/06/14 16:03:07;;;;;;;2.75;2.20;;;;;;;19.83;42.74;94697.52;1723224;83;21000;-51
2022/06/14 16:05:40;;;;;;;9.58;3.65;;;;;;;19.80;42.92;94701.33;1753358;81;21528;-52
2022/06/14 16:08:13;;;;;;;19.73;7.83;;;;;;;19.76;42.95;94707.78;1750148;81;20946;-51
2022/06/14 16:10:56;;;;;;;7.47;2.83;;;;;;;19.68;43.64;94706.78;1723260;83;21398;-50
2022/06/14 16:13:30;;;;;;;5.03;2.55;;;;;;;19.63;43.31;94708.94;1734186;82;21006;-50
2022/06/14 16:16:06;;;;;;;3.90;2.10;;;;;;;19.54;43.69;94715.40;1723307;83;21450;-52
2022/06/14 16:18:43;;;;;;;5.22;2.45;;;;;;;19.45;44.51;94712.22;1734378;82;21030;-52
2022/06/14 16:21:24;;;;;;;4.67;2.20;;;;;;;19.32;44.52;94713.33;1723270;83;21019;-51
2022/06/14 16:23:53;;;;;;;6.97;2.20;;;;;;;19.14;45.26;94715.16;1753107;81;21864;-51
2022/06/14 16:26:38;;;;;;;10.25;2.33;;;;;;;18.96;45.53;94720.41;1754138;81;21387;-50
2022/06/14 16:29:46;;;;;;;4.22;2.70;;;;;;;18.83;45.75;94723.66;1723218;83;20998;-51
2022/06/14 16:32:33;;;;;;;4.55;2.35;;;;;;;18.73;46.66;94724.38;1734054;82;21070;-50
2022/06/14 16:35:15;;;;;;;7.53;2.30;;;;;;;18.61;47.10;94727.74;1723391;83;21430;-51
2022/06/14 16:37:53;;;;;;;5.05;2.27;;;;;;;18.55;47.68;94714.42;1733932;82;21020;-51
2022/06/14 16:40:29;;;;;;;4.53;2.20;;;;;;;18.52;48.24;94729.36;1752471;81;20946;-50
2022/06/14 16:43:09;;;;;;;5.42;2.17;;;;;;;18.47;48.78;94730.71;1754011;81;20947;-49
2022/06/14 16:45:56;;;;;;;2.87;2.30;;;;;;;18.35;48.99;94729.89;1723256;83;21045;-50
2022/06/14 16:48:50;;;;;;;3.17;2.33;;;;;;;18.27;49.49;94732.99;1734195;82;21042;-51
2022/06/14 16:51:47;;;;;;;7.30;2.30;;;;;;;18.17;49.87;94732.91;1675085;83;21094;-50
2022/06/14 16:54:36;;;;;;;3.67;2.52;;;;;;;18.06;50.34;94739.16;1728186;82;21004;-50
2022/06/14 16:57:15;;;;;;;4.25;2.30;;;;;;;17.95;50.26;94745.25;1724253;83;21102;-50
2022/06/14 17:00:00;;;;;;;3.25;2.20;;;;;;;17.93;50.52;94744.37;1631119;83;20991;-51
2022/06/14 17:03:08;;;;;;;5.78;2.50;;;;;;;17.94;50.10;94747.90;1724066;83;20975;-52
2022/06/14 17:06:09;;;;;;;4.25;2.70;;;;;;;17.92;50.20;94753.20;1683132;85;21190;-52
2022/06/14 17:09:00;;;;;;;5.05;2.37;;;;;;;17.90;50.07;94757.11;1724236;83;21052;-51
2022/06/14 17:11:35;;;;;;;4.35;2.40;;;;;;;17.84;49.86;94751.49;1724253;83;21051;-51
2022/06/14 17:14:09;;;;;;;3.17;2.27;;;;;;;17.80;49.83;94762.09;1724473;83;21059;-48
2022/06/14 17:16:49;;;;;;;6.62;2.33;;;;;;;17.79;50.03;94756.39;1724151;83;20948;-51
2022/06/14 17:19:36;;;;;;;4.65;2.08;;;;;;;17.76;50.22;94760.78;1683454;85;21127;-50
2022/06/14 17:22:34;;;;;;;3.60;2.35;;;;;;;17.70;50.67;94764.16;1724166;83;21059;-49
2022/06/14 17:30:57;;;;;;;5.33;2.35;;;;;;;17.60;51.09;94782.26;1683102;85;21077;-51
2022/06/14 17:33:32;;;;;;;6.83;2.42;;;;;;;17.57;51.42;94783.25;1724244;83;21146;-50
2022/06/14 17:36:24;;;;;;;5.37;2.47;;;;;;;17.52;51.51;94783.95;1683173;85;21525;-50
2022/06/14 17:39:03;;;;;;;5.97;2.60;;;;;;;17.48;51.65;94788.98;1724238;83;20968;-49
2022/06/14 17:41:49;;;;;;;5.30;2.50;;;;;;;17.40;51.78;94793.44;1724433;83;20979;-51
2022/06/14 17:44:25;;;;;;;5.58;3.05;;;;;;;17.32;51.47;94785.37;1683191;85;21018;-51
2022/06/14 17:46:54;;;;;;;7.60;2.72;;;;;;;17.25;51.63;94788.59;1722992;83;21137;-51
2022/06/14 17:49:49;;;;;;;5.97;2.80;;;;;;;17.21;52.19;94792.96;1683033;85;21487;-50
2022/06/14 17:52:33;;;;;;;5.25;2.70;;;;;;;17.15;52.30;94790.76;1724258;83;21086;-49
2022/06/14 17:55:30;;;;;;;4.25;3.00;;;;;;;17.11;52.71;94786.66;1702398;82;20955;-50
2022/06/14 17:58:14;;;;;;;5.28;3.12;;;;;;;17.06;52.64;94788.75;1656153;83;21630;-52
2022/06/14 18:00:58;;;;;;;4.20;2.83;;;;;;;17.03;52.70;94791.86;1708345;84;21042;-51
2022/06/14 18:03:26;;;;;;;6.78;3.12;;;;;;;17.02;53.17;94795.12;1737864;82;20982;-52
2022/06/14 18:06:00;;;;;;;10.38;4.72;;;;;;;16.98;53.08;94790.41;1719315;83;21087;-52
2022/06/14 18:08:38;;;;;;;4.90;3.05;;;;;;;16.95;53.47;94797.69;1688858;84;20986;-49
2022/06/14 18:11:14;;;;;;;3.52;2.55;;;;;;;16.92;53.62;94800.70;1714652;82;21007;-50
2022/06/14 18:14:00;;;;;;;5.95;2.90;;;;;;;16.88;53.52;94800.15;1719363;83;21835;-51